Time;durP1;ratioP1;P1;durP2;ratioP2;P2;SDS_P1;SDS_P2;PMS_P1;PMS_P2;Temp;Humidity;BMP_temperature;BMP_pressure;BME280_temperature;BME280_humidity;BME280_pressure;Samples;Min_cycle;Max_cycle;Signal;HPM_P1;HPM_P2
2020/12/23 00:02:23;;;;;;;112.63;49.17;;;;;;;7.01;90.07;100847.75;5118049;28;20031;-64
2020/12/23 00:04:49;;;;;;;115.45;51.08;;;;;;;6.98;89.59;100851.28;5117753;28;20407;-65
2020/12/23 00:07:15;;;;;;;115.88;49.25;;;;;;;6.95;89.92;100841.66;5099622;28;20035;-65
2020/12/23 00:09:42;;;;;;;109.78;48.63;;;;;;;6.94;90.04;100834.44;5118090;28;20026;-65
2020/12/23 00:12:07;;;;;;;106.50;47.60;;;;;;;6.92;90.02;100834.00;5117963;28;20058;-65
2020/12/23 00:14:33;;;;;;;106.78;48.00;;;;;;;6.93;90.03;100835.63;5117668;28;20055;-64
2020/12/23 00:16:58;;;;;;;108.22;48.88;;;;;;;6.96;90.16;100834.88;5117744;28;20043;-65
2020/12/23 00:19:23;;;;;;;106.57;48.60;;;;;;;6.98;90.53;100834.50;5117688;28;20067;-64
2020/12/23 00:21:49;;;;;;;107.40;48.10;;;;;;;7.01;90.38;100842.16;5117139;28;20020;-64
2020/12/23 00:24:14;;;;;;;103.18;45.72;;;;;;;7.02;90.31;100839.00;5115742;28;20023;-65
2020/12/23 00:26:39;;;;;;;99.13;45.35;;;;;;;7.01;90.19;100853.34;5115714;28;20028;-65
2020/12/23 00:29:05;;;;;;;96.57;45.20;;;;;;;7.02;90.02;100849.34;5117469;28;20056;-65
2020/12/23 00:31:30;;;;;;;99.60;46.35;;;;;;;7.02;90.17;100852.16;5117330;28;20036;-66
2020/12/23 00:33:56;;;;;;;103.32;46.38;;;;;;;7.03;90.45;100849.00;5117562;28;20395;-65
2020/12/23 00:36:21;;;;;;;105.45;46.50;;;;;;;7.03;90.45;100851.78;5113546;28;20077;-66
2020/12/23 00:38:47;;;;;;;94.60;44.83;;;;;;;7.02;90.03;100843.78;5117589;28;20088;-64
2020/12/23 00:41:13;;;;;;;96.75;46.88;;;;;;;7.02;90.27;100855.75;5116995;28;20055;-65
2020/12/23 00:43:38;;;;;;;97.72;44.10;;;;;;;7.02;90.31;100852.97;5117450;28;20027;-65
2020/12/23 00:46:04;;;;;;;98.85;44.72;;;;;;;7.05;90.74;100855.03;5117092;28;20028;-64
2020/12/23 00:48:30;;;;;;;103.35;47.53;;;;;;;7.06;90.64;100858.63;5098793;28;20043;-64
2020/12/23 00:50:55;;;;;;;102.47;45.15;;;;;;;7.07;90.68;100858.25;5116630;28;20077;-64
2020/12/23 00:53:21;;;;;;;94.20;44.00;;;;;;;7.10;90.47;100857.50;5117053;28;20094;-64
2020/12/23 00:55:46;;;;;;;96.75;45.17;;;;;;;7.11;90.55;100845.16;5117233;28;20019;-64
2020/12/23 00:58:11;;;;;;;101.20;45.38;;;;;;;7.13;90.17;100845.63;5116968;28;20034;-63
2020/12/23 01:00:37;;;;;;;95.28;43.72;;;;;;;7.14;90.24;100849.22;5116898;28;20031;-63
2020/12/23 01:03:02;;;;;;;99.00;45.83;;;;;;;7.14;90.49;100857.63;5116669;28;20076;-64
2020/12/23 01:05:27;;;;;;;86.75;43.15;;;;;;;7.15;90.37;100858.44;5116470;28;20076;-63
2020/12/23 01:07:52;;;;;;;95.22;45.00;;;;;;;7.15;90.41;100850.03;5116718;28;20058;-63
2020/12/23 01:10:18;;;;;;;90.85;43.08;;;;;;;7.14;90.31;100860.41;5114433;28;20020;-64
2020/12/23 01:12:43;;;;;;;97.93;43.58;;;;;;;7.12;90.83;100858.00;5109761;28;20322;-62
2020/12/23 01:15:08;;;;;;;86.18;40.92;;;;;;;7.12;91.06;100855.19;5116568;28;20030;-64
2020/12/23 01:17:34;;;;;;;89.55;42.25;;;;;;;7.12;91.16;100860.78;5116900;28;20304;-64
2020/12/23 01:19:59;;;;;;;89.25;43.75;;;;;;;7.12;90.95;100860.78;5097806;28;20020;-64
2020/12/23 01:22:25;;;;;;;90.63;45.35;;;;;;;7.12;91.25;100859.94;5116483;28;20411;-63
2020/12/23 01:24:50;;;;;;;99.95;46.38;;;;;;;7.10;91.30;100854.72;5116451;28;20382;-64
2020/12/23 01:27:16;;;;;;;108.50;51.20;;;;;;;7.11;90.96;100859.13;5116249;28;20303;-64
2020/12/23 01:29:41;;;;;;;100.35;45.45;;;;;;;7.10;91.43;100854.72;5116335;28;20055;-64
2020/12/23 01:32:07;;;;;;;101.55;49.00;;;;;;;7.10;91.27;100857.50;5116285;28;20323;-64
2020/12/23 01:34:33;;;;;;;107.80;53.85;;;;;;;7.08;91.27;100859.88;5115882;28;20027;-64
2020/12/23 01:36:58;;;;;;;117.75;54.03;;;;;;;7.07;91.60;100849.88;5116246;28;20023;-64
2020/12/23 01:39:24;;;;;;;116.15;52.83;;;;;;;7.05;91.47;100849.44;5115956;28;20019;-63
2020/12/23 01:41:55;;;;;;;120.85;57.35;;;;;;;7.06;91.51;100853.84;5116616;28;20426;-63
2020/12/23 01:44:21;;;;;;;122.57;58.53;;;;;;;7.06;91.38;100853.84;5115837;28;20032;-65
2020/12/23 01:46:48;;;;;;;134.68;62.55;;;;;;;7.04;91.39;100853.41;5116309;28;20047;-64
2020/12/23 01:49:14;;;;;;;109.50;52.00;;;;;;;7.01;91.81;100856.13;5115599;28;20415;-64
2020/12/23 01:51:39;;;;;;;95.68;48.28;;;;;;;6.99;91.76;100848.13;5116038;28;20035;-64
2020/12/23 01:54:06;;;;;;;103.18;45.78;;;;;;;6.99;92.15;100850.91;5116203;28;20031;-64
2020/12/23 01:56:32;;;;;;;93.78;44.85;;;;;;;6.99;92.08;100844.50;5115846;28;20026;-64
2020/12/23 01:58:57;;;;;;;101.25;48.00;;;;;;;6.95;91.97;100838.84;5115936;28;20059;-63
2020/12/23 02:01:25;;;;;;;89.35;43.65;;;;;;;6.93;91.88;100841.22;5115557;28;20034;-63
2020/12/23 02:03:50;;;;;;;91.38;44.47;;;;;;;6.93;92.09;100834.81;5115666;28;20027;-64
2020/12/23 02:06:16;;;;;;;93.80;45.25;;;;;;;6.91;92.40;100829.59;5115427;28;20327;-64
2020/12/23 02:08:43;;;;;;;92.30;46.08;;;;;;;6.93;92.23;100826.41;5116263;28;20421;-65
2020/12/23 02:11:11;;;;;;;92.70;44.70;;;;;;;6.93;92.07;100824.44;5115880;28;20027;-64
2020/12/23 02:13:44;;;;;;;86.07;42.05;;;;;;;6.90;92.43;100827.97;5115654;28;20015;-67
2020/12/23 02:16:13;;;;;;;90.95;42.88;;;;;;;6.91;92.23;100825.97;5115973;28;20106;-64
2020/12/23 02:18:38;;;;;;;93.13;45.45;;;;;;;6.91;92.32;100818.41;5115540;28;20102;-64
2020/12/23 02:21:04;;;;;;;88.90;46.33;;;;;;;6.91;92.34;100810.03;5115598;28;20108;-63
2020/12/23 02:23:29;;;;;;;90.97;44.20;;;;;;;6.89;92.22;100817.97;5097532;28;20027;-63
2020/12/23 02:25:55;;;;;;;98.40;49.10;;;;;;;6.86;92.03;100813.13;5115877;28;20024;-65
2020/12/23 02:28:21;;;;;;;139.88;59.15;;;;;;;6.84;92.19;100821.03;5115372;28;20027;-65
2020/12/23 02:30:56;;;;;;;138.77;61.47;;;;;;;6.81;92.17;100819.78;5115604;28;20098;-65
2020/12/23 02:33:21;;;;;;;131.52;57.55;;;;;;;6.79;92.42;100821.31;5115574;28;20110;-65
2020/12/23 02:35:47;;;;;;;127.22;55.97;;;;;;;6.79;92.62;100822.13;5115584;28;20460;-64
2020/12/23 02:38:12;;;;;;;132.18;59.10;;;;;;;6.79;92.31;100812.94;5115722;28;20028;-66
2020/12/23 02:40:37;;;;;;;110.63;52.10;;;;;;;6.80;92.35;100808.97;5101089;28;20036;-65
2020/12/23 02:43:03;;;;;;;96.32;45.08;;;;;;;6.83;92.33;100814.63;5115501;28;20027;-65
2020/12/23 02:45:28;;;;;;;86.57;41.25;;;;;;;6.86;92.36;100824.28;5115312;28;20110;-65
2020/12/23 02:47:53;;;;;;;83.30;41.30;;;;;;;6.90;92.32;100814.00;5115307;28;20384;-64
2020/12/23 02:50:19;;;;;;;80.10;39.30;;;;;;;6.94;92.21;100817.66;5115379;28;20131;-65
2020/12/23 02:52:44;;;;;;;80.00;40.28;;;;;;;7.01;92.37;100814.19;5115229;28;20038;-65
2020/12/23 02:55:09;;;;;;;81.50;39.35;;;;;;;7.04;92.37;100814.28;5115666;28;20697;-66
2020/12/23 02:57:35;;;;;;;84.03;37.90;;;;;;;7.07;92.31;100805.16;5114904;28;20027;-65
2020/12/23 03:00:00;;;;;;;73.40;36.03;;;;;;;7.08;92.33;100803.97;5101509;28;20324;-65
2020/12/23 03:02:25;;;;;;;73.97;36.85;;;;;;;7.10;92.00;100807.19;5115384;28;20417;-65
2020/12/23 03:04:50;;;;;;;82.13;37.35;;;;;;;7.11;91.82;100803.22;5115219;28;20019;-65
2020/12/23 03:07:16;;;;;;;74.03;36.80;;;;;;;7.15;91.97;100796.94;5115218;28;20015;-65
2020/12/23 03:09:41;;;;;;;75.50;37.28;;;;;;;7.17;92.19;100808.53;5115328;28;20073;-65
2020/12/23 03:12:06;;;;;;;82.78;38.92;;;;;;;7.20;91.71;100807.81;5115384;28;20073;-65
2020/12/23 03:14:32;;;;;;;78.18;38.45;;;;;;;7.26;91.77;100815.50;5116255;28;20023;-66
2020/12/23 03:16:57;;;;;;;80.57;37.90;;;;;;;7.28;91.75;100804.75;5118924;28;20421;-66
2020/12/23 03:19:22;;;;;;;84.00;40.78;;;;;;;7.35;91.06;100818.06;5118996;28;20035;-65
2020/12/23 03:21:48;;;;;;;81.35;38.85;;;;;;;7.41;90.27;100819.41;5118788;28;20019;-64
2020/12/23 03:24:13;;;;;;;75.30;36.67;;;;;;;7.50;89.48;100833.94;5118831;28;20020;-64
2020/12/23 03:26:38;;;;;;;76.28;36.83;;;;;;;7.53;89.66;100824.00;5118546;28;20024;-64
2020/12/23 03:29:03;;;;;;;77.78;39.08;;;;;;;7.56;89.39;100818.47;5118449;28;20019;-64
2020/12/23 03:31:29;;;;;;;75.63;36.78;;;;;;;7.59;88.74;100814.91;5118520;28;20026;-64
2020/12/23 03:33:56;;;;;;;70.95;36.78;;;;;;;7.66;88.48;100814.22;5118244;28;20102;-63
2020/12/23 03:36:22;;;;;;;74.50;36.38;;;;;;;7.67;88.59;100825.06;5100521;28;20034;-63
2020/12/23 03:38:48;;;;;;;66.60;34.88;;;;;;;7.66;88.91;100829.03;5118380;28;20023;-64
2020/12/23 03:41:14;;;;;;;68.53;35.65;;;;;;;7.63;88.95;100821.38;5118630;28;20046;-64
2020/12/23 03:43:39;;;;;;;67.95;34.53;;;;;;;7.60;89.15;100824.94;5118238;28;20088;-65
2020/12/23 03:46:04;;;;;;;66.07;34.42;;;;;;;7.60;88.93;100818.53;5118499;28;20032;-64
2020/12/23 03:48:30;;;;;;;72.13;37.15;;;;;;;7.58;89.29;100820.88;5117801;28;20078;-64
2020/12/23 03:50:55;;;;;;;70.70;37.80;;;;;;;7.57;89.43;100814.50;5118234;28;20374;-64
2020/12/23 03:53:21;;;;;;;77.55;36.15;;;;;;;7.58;89.69;100813.31;5112636;28;20024;-63
2020/12/23 03:55:47;;;;;;;75.10;38.92;;;;;;;7.59;89.58;100808.53;5113986;28;20026;-64
2020/12/23 03:58:12;;;;;;;71.55;36.15;;;;;;;7.60;89.57;100816.53;5117943;28;20020;-64
2020/12/23 04:00:38;;;;;;;74.47;35.28;;;;;;;7.68;89.46;100814.69;5118269;28;20080;-65
2020/12/23 04:03:03;;;;;;;72.25;34.65;;;;;;;7.72;89.07;100827.56;5099853;28;20030;-64
2020/12/23 04:05:28;;;;;;;64.20;33.33;;;;;;;7.73;88.69;100823.59;5117679;28;20023;-64
2020/12/23 04:07:54;;;;;;;73.40;34.10;;;;;;;7.75;88.44;100826.00;5118156;28;20019;-65
2020/12/23 04:10:19;;;;;;;65.40;34.15;;;;;;;7.79;88.70;100828.88;5118128;28;20068;-65
2020/12/23 04:12:44;;;;;;;67.00;33.65;;;;;;;7.84;87.96;100834.94;5117270;28;20364;-64
2020/12/23 04:15:11;;;;;;;60.08;31.45;;;;;;;7.88;87.93;100837.81;5117893;28;20107;-64
2020/12/23 04:17:36;;;;;;;66.00;33.38;;;;;;;7.92;87.45;100831.09;5117621;28;20046;-65
2020/12/23 04:20:07;;;;;;;59.65;31.58;;;;;;;7.95;87.63;100840.75;5117614;28;20031;-66
2020/12/23 04:22:32;;;;;;;62.67;32.08;;;;;;;7.97;87.58;100846.78;5117562;28;20020;-66
2020/12/23 04:25:04;;;;;;;61.80;31.17;;;;;;;7.98;87.82;100840.81;5117311;28;20088;-65
2020/12/23 04:27:29;;;;;;;59.60;30.75;;;;;;;7.97;87.73;100836.38;5117000;28;20026;-64
2020/12/23 04:29:55;;;;;;;57.22;31.05;;;;;;;7.97;87.39;100832.78;5117504;28;20019;-65
2020/12/23 04:32:21;;;;;;;62.58;31.50;;;;;;;7.98;87.44;100828.81;5117386;28;20590;-66
2020/12/23 04:34:46;;;;;;;58.75;30.15;;;;;;;7.98;88.20;100820.41;5117260;28;20031;-65
2020/12/23 04:37:11;;;;;;;57.55;31.38;;;;;;;7.98;87.94;100818.41;5099427;28;20319;-65
2020/12/23 04:39:37;;;;;;;57.13;30.15;;;;;;;7.98;88.59;100796.00;5117071;28;20084;-65
2020/12/23 04:42:03;;;;;;;57.85;31.95;;;;;;;7.99;88.62;100794.03;5116969;28;20024;-65
2020/12/23 04:44:30;;;;;;;55.42;31.08;;;;;;;8.00;88.22;100798.44;5117166;28;20288;-64
2020/12/23 04:46:56;;;;;;;60.00;30.40;;;;;;;8.04;87.73;100804.91;5117066;28;20077;-65
2020/12/23 04:49:22;;;;;;;57.92;31.00;;;;;;;8.01;88.33;100797.25;5116800;28;20119;-65
2020/12/23 04:51:55;;;;;;;59.22;32.08;;;;;;;7.99;88.57;100803.22;5117025;28;20076;-67
2020/12/23 04:54:22;;;;;;;52.42;29.48;;;;;;;7.96;88.67;100792.78;5099116;28;20382;-63
2020/12/23 04:56:48;;;;;;;58.97;29.85;;;;;;;7.94;88.28;100797.97;5098858;28;20035;-66
2020/12/23 04:59:14;;;;;;;59.55;32.55;;;;;;;7.90;89.14;100790.66;5117008;28;20115;-64
2020/12/23 05:01:40;;;;;;;64.75;36.45;;;;;;;7.87;89.21;100802.59;5109117;28;20047;-64
2020/12/23 05:04:05;;;;;;;56.60;31.77;;;;;;;7.84;89.10;100795.78;5114105;28;20406;-64
2020/12/23 05:06:33;;;;;;;64.43;33.83;;;;;;;7.85;89.69;100804.97;5101128;28;20031;-64
2020/12/23 05:08:58;;;;;;;66.93;33.90;;;;;;;7.85;89.81;100793.78;5114657;28;20065;-64
2020/12/23 05:11:23;;;;;;;59.92;31.70;;;;;;;7.82;89.43;100795.34;5106639;28;20020;-65
2020/12/23 05:13:49;;;;;;;64.82;34.58;;;;;;;7.82;90.05;100797.31;5116432;28;20024;-64
2020/12/23 05:16:24;;;;;;;63.42;34.05;;;;;;;7.81;90.07;100799.31;5116717;28;20442;-63
2020/12/23 05:18:55;;;;;;;60.97;32.70;;;;;;;7.81;89.75;100804.09;5116366;28;20036;-63
2020/12/23 05:21:22;;;;;;;57.67;29.83;;;;;;;7.78;90.01;100808.47;5116829;28;20019;-64
2020/12/23 05:23:48;;;;;;;54.72;30.08;;;;;;;7.77;90.08;100811.63;5116426;28;20028;-67
2020/12/23 05:26:15;;;;;;;60.22;30.58;;;;;;;7.80;90.04;100820.09;5113312;28;20107;-63
2020/12/23 05:28:42;;;;;;;53.67;30.08;;;;;;;7.81;89.83;100829.28;5116411;28;20024;-63
2020/12/23 05:31:16;;;;;;;59.03;30.10;;;;;;;7.84;89.80;100828.53;5113819;28;20066;-64
2020/12/23 05:33:44;;;;;;;53.83;29.25;;;;;;;7.83;89.94;100826.94;5099099;28;20024;-63
2020/12/23 05:36:17;;;;;;;59.50;29.92;;;;;;;7.82;89.68;100831.72;5102318;28;20023;-65
2020/12/23 05:38:43;;;;;;;57.97;32.10;;;;;;;7.80;90.00;100825.69;5098260;28;20024;-64
2020/12/23 05:41:11;;;;;;;64.47;35.47;;;;;;;7.84;89.95;100839.75;5097567;28;20020;-64
2020/12/23 05:43:37;;;;;;;111.13;55.35;;;;;;;7.87;89.80;100839.00;5104824;28;20097;-65
2020/12/23 05:46:07;;;;;;;90.32;46.03;;;;;;;7.88;89.80;100852.59;5101170;28;20035;-64
2020/12/23 05:48:35;;;;;;;76.95;42.38;;;;;;;7.93;89.86;100843.09;5082135;28;20145;-65
2020/12/23 05:51:01;;;;;;;73.45;41.50;;;;;;;7.91;89.34;100837.88;5085147;28;20051;-66
2020/12/23 05:53:29;;;;;;;71.65;40.42;;;;;;;7.91;89.50;100845.44;5079106;28;20027;-66
2020/12/23 05:55:54;;;;;;;88.30;46.67;;;;;;;7.90;89.71;100849.44;5078824;28;20074;-65
2020/12/23 05:58:23;;;;;;;81.03;44.80;;;;;;;7.91;89.56;100840.66;5079400;28;20020;-65
2020/12/23 06:00:49;;;;;;;68.80;35.63;;;;;;;7.96;89.37;100842.38;5077776;28;20086;-65
2020/12/23 06:03:51;;;;;;;63.50;32.80;;;;;;;7.97;89.21;100838.38;5081186;28;20166;-64
2020/12/23 06:06:29;;;;;;;60.23;30.60;;;;;;;7.97;89.25;100839.19;5080134;28;20020;-64
2020/12/23 06:08:57;;;;;;;53.67;29.15;;;;;;;7.98;89.54;100840.00;5079282;28;20024;-63
2020/12/23 06:11:47;;;;;;;50.28;27.35;;;;;;;8.00;89.18;100827.25;5080327;28;20407;-64
2020/12/23 06:14:25;;;;;;;55.95;29.55;;;;;;;8.02;89.33;100829.66;5084649;28;20103;-63
2020/12/23 06:16:53;;;;;;;57.75;28.92;;;;;;;8.04;88.29;100825.31;5079162;28;20044;-63
2020/12/23 06:19:38;;;;;;;54.28;28.02;;;;;;;8.09;87.98;100814.97;5085260;28;20044;-63
2020/12/23 06:22:09;;;;;;;55.72;28.48;;;;;;;8.11;87.69;100810.59;5080210;28;20074;-63
2020/12/23 06:24:35;;;;;;;54.55;30.25;;;;;;;8.12;87.60;100812.22;5080002;28;20020;-63
2020/12/23 06:27:03;;;;;;;55.97;29.23;;;;;;;8.12;87.11;100817.00;5080364;28;20051;-64
2020/12/23 06:29:30;;;;;;;63.60;32.88;;;;;;;8.11;87.33;100816.22;5084871;28;20016;-64
2020/12/23 06:31:58;;;;;;;54.42;27.52;;;;;;;8.15;87.40;100821.84;5089329;28;20100;-63
2020/12/23 06:34:25;;;;;;;50.92;28.75;;;;;;;8.18;87.10;100810.72;5082055;28;20035;-64
2020/12/23 06:36:52;;;;;;;54.13;29.35;;;;;;;8.20;87.22;100801.94;5081535;28;20104;-64
2020/12/23 06:39:21;;;;;;;52.45;28.20;;;;;;;8.23;86.76;100802.00;5081778;28;20115;-64
2020/12/23 06:41:49;;;;;;;49.92;28.20;;;;;;;8.29;86.24;100813.69;5086482;28;20027;-63
2020/12/23 06:44:14;;;;;;;49.70;27.77;;;;;;;8.29;86.01;100800.50;5082399;28;20020;-65
2020/12/23 06:46:58;;;;;;;49.75;27.38;;;;;;;8.30;87.21;100792.91;5087535;28;20331;-64
2020/12/23 06:49:47;;;;;;;54.97;28.73;;;;;;;8.29;87.04;100805.28;5092297;28;20115;-64
2020/12/23 06:52:22;;;;;;;50.90;27.55;;;;;;;8.24;87.24;100798.03;5088102;28;20636;-64
2020/12/23 06:54:53;;;;;;;48.20;26.52;;;;;;;8.25;86.83;100796.84;5089254;28;20030;-64
2020/12/23 06:57:37;;;;;;;56.90;27.73;;;;;;;8.28;87.22;100820.47;5087255;28;20028;-66
2020/12/23 07:00:23;;;;;;;56.67;27.65;;;;;;;8.30;87.29;100813.31;5089315;28;20032;-63
2020/12/23 07:03:02;;;;;;;51.38;27.00;;;;;;;8.33;86.22;100818.19;5091940;28;20016;-64
2020/12/23 07:05:28;;;;;;;48.70;26.85;;;;;;;8.36;86.47;100817.44;5096791;28;20104;-64
2020/12/23 07:07:59;;;;;;;48.63;26.08;;;;;;;8.39;86.18;100815.06;5079255;28;20052;-64
2020/12/23 07:10:36;;;;;;;47.70;26.15;;;;;;;8.40;86.74;100816.66;5080799;28;20020;-64
2020/12/23 07:13:11;;;;;;;50.00;26.13;;;;;;;8.42;85.99;100814.31;5080631;28;20028;-63
2020/12/23 07:15:42;;;;;;;46.30;25.50;;;;;;;8.41;86.53;100798.69;5081306;28;20404;-64
2020/12/23 07:18:16;;;;;;;55.67;28.83;;;;;;;8.41;86.48;100795.88;5079909;28;20040;-64
2020/12/23 07:20:52;;;;;;;50.33;27.10;;;;;;;8.42;86.09;100803.91;5081242;28;20063;-64
2020/12/23 07:23:20;;;;;;;54.38;26.92;;;;;;;8.43;86.46;100816.72;5078768;28;20404;-64
2020/12/23 07:25:48;;;;;;;50.60;27.15;;;;;;;8.43;86.85;100804.72;5081452;28;20022;-63
2020/12/23 07:28:17;;;;;;;45.47;25.77;;;;;;;8.43;86.60;100810.31;5079776;28;20020;-63
2020/12/23 07:30:43;;;;;;;47.50;26.67;;;;;;;8.45;86.00;100807.94;5080619;28;20028;-62
2020/12/23 07:33:17;;;;;;;54.40;32.25;;;;;;;8.46;86.72;100803.94;5080177;28;20070;-64
2020/12/23 07:36:02;;;;;;;60.92;32.63;;;;;;;8.50;85.72;100807.63;5079273;28;20320;-64
2020/12/23 07:38:32;;;;;;;50.35;26.63;;;;;;;8.60;86.53;100823.78;5090923;28;20021;-65
2020/12/23 07:40:57;;;;;;;45.90;26.30;;;;;;;8.77;86.60;100805.59;5090797;28;20020;-64
2020/12/23 07:43:23;;;;;;;48.30;26.67;;;;;;;8.96;86.88;100800.63;5088368;28;20412;-64
2020/12/23 07:45:50;;;;;;;54.03;26.25;;;;;;;9.13;85.83;100790.00;5079489;28;20024;-64
2020/12/23 07:48:15;;;;;;;47.55;27.05;;;;;;;9.21;83.62;100794.50;5092818;28;20432;-65
2020/12/23 07:50:44;;;;;;;54.00;27.95;;;;;;;9.25;83.71;100801.75;5106921;28;20054;-64
2020/12/23 07:53:19;;;;;;;48.63;25.45;;;;;;;9.28;83.63;100812.22;5100645;28;20102;-64
2020/12/23 07:55:47;;;;;;;49.17;26.45;;;;;;;9.33;84.00;100818.69;5099043;28;20311;-64
2020/12/23 07:58:13;;;;;;;48.80;26.10;;;;;;;9.33;83.60;100818.69;5100435;28;20110;-64
2020/12/23 08:00:40;;;;;;;41.67;23.88;;;;;;;9.34;83.69;100815.50;5098191;28;20449;-64
2020/12/23 08:03:06;;;;;;;44.38;25.05;;;;;;;9.36;83.65;100810.31;5110562;28;20032;-65
2020/12/23 08:05:33;;;;;;;43.65;25.05;;;;;;;9.35;83.21;100805.91;5113586;28;20036;-64
2020/12/23 08:07:58;;;;;;;42.35;23.95;;;;;;;9.35;83.49;100814.31;5097885;28;20396;-66
2020/12/23 08:10:23;;;;;;;45.75;24.33;;;;;;;9.35;83.72;100807.91;5099119;28;20035;-65
2020/12/23 08:13:01;;;;;;;39.67;22.25;;;;;;;9.33;83.45;100791.44;5110346;28;20319;-65
2020/12/23 08:15:27;;;;;;;46.92;24.25;;;;;;;9.33;83.64;100788.66;5097775;28;20355;-64
2020/12/23 08:18:16;;;;;;;41.22;22.90;;;;;;;9.32;83.92;100798.25;5097416;28;20020;-65
2020/12/23 08:20:41;;;;;;;39.25;23.05;;;;;;;9.32;84.25;100801.06;5090302;28;20040;-66
2020/12/23 08:23:06;;;;;;;48.75;28.77;;;;;;;9.33;83.93;100796.25;5098642;28;20426;-65
2020/12/23 08:25:32;;;;;;;44.58;24.63;;;;;;;9.35;84.07;100800.28;5098692;28;20426;-65
2020/12/23 08:28:00;;;;;;;42.50;24.10;;;;;;;9.38;83.97;100790.28;5104392;28;20403;-64
2020/12/23 08:30:31;;;;;;;44.40;24.48;;;;;;;9.39;83.87;100781.47;5109695;28;20035;-66
2020/12/23 08:33:02;;;;;;;41.47;22.65;;;;;;;9.42;84.42;100768.69;5112205;28;20019;-64
2020/12/23 08:35:29;;;;;;;42.20;22.23;;;;;;;9.48;83.61;100776.34;5110109;28;20028;-63
2020/12/23 08:37:55;;;;;;;36.40;19.80;;;;;;;9.49;84.18;100786.38;5111124;28;20064;-64
2020/12/23 08:40:20;;;;;;;33.88;18.95;;;;;;;9.50;83.90;100776.78;5111995;28;20027;-64
2020/12/23 08:42:57;;;;;;;39.88;20.65;;;;;;;9.54;83.95;100786.03;5109131;28;20044;-64
2020/12/23 08:45:27;;;;;;;31.23;18.77;;;;;;;9.58;83.17;100789.66;5112356;28;20020;-64
2020/12/23 08:47:54;;;;;;;30.10;19.05;;;;;;;9.68;83.44;100784.56;5108558;28;20044;-63
2020/12/23 08:50:22;;;;;;;35.20;19.40;;;;;;;9.89;83.87;100779.94;5117291;28;20311;-66
2020/12/23 08:52:52;;;;;;;33.38;18.58;;;;;;;10.14;82.77;100768.91;5108030;28;20066;-65
2020/12/23 08:55:26;;;;;;;40.67;24.13;;;;;;;10.36;82.73;100767.03;5112697;28;20024;-64
2020/12/23 08:58:05;;;;;;;33.67;17.73;;;;;;;10.58;82.31;100767.19;5107737;28;20030;-64
2020/12/23 09:00:32;;;;;;;36.10;19.50;;;;;;;10.74;82.15;100760.03;5112589;28;20098;-67
2020/12/23 09:02:58;;;;;;;33.53;19.17;;;;;;;10.93;79.34;100752.47;5111954;28;20023;-65
2020/12/23 09:05:28;;;;;;;31.67;18.58;;;;;;;11.05;78.49;100760.56;5098633;28;20065;-63
2020/12/23 09:08:08;;;;;;;35.20;19.13;;;;;;;11.20;77.94;100755.75;5116900;28;20095;-65
2020/12/23 09:10:37;;;;;;;57.25;19.67;;;;;;;11.33;77.33;100754.19;5116450;28;20314;-65
2020/12/23 09:13:07;;;;;;;37.00;19.00;;;;;;;11.49;76.63;100750.97;5116808;28;20097;-65
2020/12/23 09:15:33;;;;;;;49.13;19.25;;;;;;;11.59;76.55;100762.28;5116529;28;20027;-65
2020/12/23 09:18:13;;;;;;;63.25;21.52;;;;;;;11.73;75.48;100759.44;5116830;28;20011;-66
2020/12/23 09:20:39;;;;;;;34.22;18.25;;;;;;;11.86;74.96;100762.72;5115962;28;20019;-62
2020/12/23 09:23:06;;;;;;;37.97;18.35;;;;;;;11.95;74.60;100762.31;5097255;28;20027;-65
2020/12/23 09:25:33;;;;;;;29.92;17.80;;;;;;;12.03;75.04;100759.06;5097096;28;20109;-64
2020/12/23 09:28:12;;;;;;;33.58;18.00;;;;;;;12.18;74.79;100747.78;5097107;28;20028;-65
2020/12/23 09:30:38;;;;;;;32.95;18.40;;;;;;;12.38;73.83;100746.97;5096127;28;20455;-64
2020/12/23 09:33:12;;;;;;;33.00;18.75;;;;;;;12.63;73.30;100740.44;5098083;28;20062;-66
2020/12/23 09:35:39;;;;;;;28.77;17.63;;;;;;;12.75;72.90;100744.81;5097833;28;20032;-65
2020/12/23 09:38:56;;;;;;;33.92;19.27;;;;;;;12.90;72.92;100746.38;5099655;28;20016;-65
2020/12/23 09:41:16;;;;;;;36.03;20.23;;;;;;;12.98;70.80;100750.75;5097370;28;20047;-66
2020/12/23 09:43:41;;;;;;;34.08;18.52;;;;;;;12.88;70.87;100741.16;5096548;28;20069;-65
2020/12/23 09:46:10;;;;;;;30.92;19.00;;;;;;;12.71;71.29;100741.22;5101263;28;20027;-65
2020/12/23 09:48:35;;;;;;;34.35;19.75;;;;;;;12.56;71.81;100738.44;5102507;28;20123;-64
2020/12/23 09:51:01;;;;;;;32.65;18.98;;;;;;;12.41;72.92;100719.97;5105643;28;20115;-64
2020/12/23 09:53:27;;;;;;;35.15;19.40;;;;;;;12.31;73.05;100723.59;5085583;28;20097;-65
2020/12/23 09:55:53;;;;;;;30.33;17.25;;;;;;;12.22;73.79;100715.56;5099489;28;20411;-64
2020/12/23 09:58:19;;;;;;;34.05;20.45;;;;;;;12.19;73.48;100721.22;5103237;28;20080;-65
2020/12/23 10:00:49;;;;;;;41.42;23.00;;;;;;;12.19;72.90;100722.03;5099793;28;20020;-64
2020/12/23 10:03:14;;;;;;;42.00;21.85;;;;;;;12.17;74.13;100712.38;5112279;28;20020;-63
2020/12/23 10:05:40;;;;;;;42.53;23.83;;;;;;;12.11;73.43;100711.19;5115773;28;20034;-67
2020/12/23 10:08:07;;;;;;;44.33;23.00;;;;;;;12.05;74.27;100703.16;5116036;28;20046;-66
2020/12/23 10:10:33;;;;;;;38.28;21.90;;;;;;;12.03;73.26;100696.28;5114468;28;20047;-63
2020/12/23 10:12:59;;;;;;;37.90;23.13;;;;;;;11.99;73.67;100687.84;5109188;28;20498;-63
2020/12/23 10:15:24;;;;;;;30.33;18.33;;;;;;;11.97;73.87;100676.19;5104699;28;20107;-63
2020/12/23 10:17:50;;;;;;;32.30;19.52;;;;;;;11.99;74.56;100679.38;5109769;28;20026;-67
2020/12/23 10:20:15;;;;;;;36.00;20.15;;;;;;;12.01;74.27;100674.16;5087375;28;20024;-63
2020/12/23 10:22:41;;;;;;;33.70;19.45;;;;;;;12.04;74.26;100666.91;5108670;28;20032;-63
2020/12/23 10:25:07;;;;;;;35.22;20.63;;;;;;;12.10;73.96;100678.59;5093168;28;20023;-63
2020/12/23 10:27:33;;;;;;;34.72;20.25;;;;;;;12.19;73.97;100667.69;5092779;28;20046;-63
2020/12/23 10:29:59;;;;;;;36.60;18.55;;;;;;;12.28;74.55;100666.03;5111656;28;20015;-63
2020/12/23 10:32:25;;;;;;;33.92;18.88;;;;;;;12.37;73.77;100657.16;5106673;28;20028;-63
2020/12/23 10:34:50;;;;;;;32.53;17.85;;;;;;;12.40;73.72;100659.16;5112313;28;20015;-63
2020/12/23 10:37:19;;;;;;;33.30;18.33;;;;;;;12.45;73.89;100661.56;5099812;28;20031;-62
2020/12/23 10:39:44;;;;;;;27.27;15.85;;;;;;;12.42;72.54;100651.09;5081470;28;20411;-63
2020/12/23 10:42:09;;;;;;;31.33;18.02;;;;;;;12.36;73.06;100658.38;5099489;28;20036;-63
2020/12/23 10:44:35;;;;;;;29.55;17.52;;;;;;;12.32;72.83;100644.25;5099039;28;20030;-63
2020/12/23 10:47:00;;;;;;;27.33;16.42;;;;;;;12.26;73.47;100643.09;5099081;28;20028;-63
2020/12/23 10:49:27;;;;;;;24.67;16.23;;;;;;;12.24;73.04;100633.44;5100082;28;20111;-63
2020/12/23 10:51:54;;;;;;;34.15;17.60;;;;;;;12.22;73.82;100647.13;5112454;28;20028;-63
2020/12/23 10:54:20;;;;;;;25.98;16.27;;;;;;;12.20;74.88;100660.84;5099365;28;20026;-63
2020/12/23 10:56:45;;;;;;;30.77;17.30;;;;;;;12.16;74.68;100648.78;5099149;28;20114;-63
2020/12/23 10:59:11;;;;;;;31.33;16.23;;;;;;;12.16;73.74;100643.13;5098607;28;20315;-64
2020/12/23 11:01:36;;;;;;;28.25;16.90;;;;;;;12.15;74.48;100647.16;5101333;28;20368;-67
2020/12/23 11:04:02;;;;;;;27.88;16.05;;;;;;;12.14;74.56;100634.28;5113947;28;20024;-63
2020/12/23 11:06:27;;;;;;;29.58;16.92;;;;;;;12.11;74.22;100624.63;5099306;28;20024;-64
2020/12/23 11:08:52;;;;;;;26.35;15.30;;;;;;;12.12;75.35;100626.25;5099327;28;20091;-63
2020/12/23 11:11:19;;;;;;;25.42;15.20;;;;;;;12.14;76.10;100618.19;5081456;28;20027;-63
2020/12/23 11:13:45;;;;;;;29.85;16.75;;;;;;;12.12;74.71;100620.59;5103689;28;20081;-64
2020/12/23 11:16:14;;;;;;;29.38;16.73;;;;;;;12.16;74.88;100607.31;5101441;28;20020;-63
2020/12/23 11:18:41;;;;;;;27.30;16.23;;;;;;;12.22;74.44;100608.47;5103664;28;20023;-67